sensor_id;sensor_type;location;lat;lon;timestamp;P1;durP1;ratioP1;P2;durP2;ratioP2
72813;SDS011;60945;48.516;-2.768;2023-04-04T00:01:38;14.32;;;9.80;;
72813;SDS011;60945;48.516;-2.768;2023-04-04T00:04:03;15.63;;;9.38;;
72813;SDS011;60945;48.516;-2.768;2023-04-04T00:06:29;13.18;;;8.00;;
72813;SDS011;60945;48.516;-2.768;2023-04-04T00:08:55;14.38;;;8.30;;
72813;SDS011;60945;48.516;-2.768;2023-04-04T00:11:21;17.40;;;9.13;;
72813;SDS011;60945;48.516;-2.768;2023-04-04T00:13:47;14.25;;;8.48;;
72813;SDS011;60945;48.516;-2.768;2023-04-04T00:16:12;15.43;;;8.43;;
72813;SDS011;60945;48.516;-2.768;2023-04-04T00:18:38;15.68;;;8.80;;
72813;SDS011;60945;48.516;-2.768;2023-04-04T00:21:04;14.95;;;8.52;;
72813;SDS011;60945;48.516;-2.768;2023-04-04T00:23:30;17.00;;;9.07;;
72813;SDS011;60945;48.516;-2.768;2023-04-04T00:25:55;14.45;;;7.97;;
72813;SDS011;60945;48.516;-2.768;2023-04-04T00:28:21;15.85;;;9.80;;
72813;SDS011;60945;48.516;-2.768;2023-04-04T00:30:47;14.48;;;8.60;;
72813;SDS011;60945;48.516;-2.768;2023-04-04T00:33:13;15.73;;;10.27;;
72813;SDS011;60945;48.516;-2.768;2023-04-04T00:35:39;17.85;;;10.90;;
72813;SDS011;60945;48.516;-2.768;2023-04-04T00:38:05;19.95;;;11.20;;
72813;SDS011;60945;48.516;-2.768;2023-04-04T00:40:31;22.13;;;11.38;;
72813;SDS011;60945;48.516;-2.768;2023-04-04T00:45:30;16.85;;;9.70;;
72813;SDS011;60945;48.516;-2.768;2023-04-04T00:47:57;17.70;;;10.40;;
72813;SDS011;60945;48.516;-2.768;2023-04-04T00:50:23;17.77;;;11.63;;
72813;SDS011;60945;48.516;-2.768;2023-04-04T00:52:48;19.10;;;10.13;;
72813;SDS011;60945;48.516;-2.768;2023-04-04T00:55:14;17.30;;;10.68;;
72813;SDS011;60945;48.516;-2.768;2023-04-04T00:57:40;17.90;;;10.07;;
72813;SDS011;60945;48.516;-2.768;2023-04-04T01:00:06;16.75;;;9.52;;
72813;SDS011;60945;48.516;-2.768;2023-04-04T01:02:32;18.92;;;10.45;;
72813;SDS011;60945;48.516;-2.768;2023-04-04T01:04:59;18.02;;;10.52;;
72813;SDS011;60945;48.516;-2.768;2023-04-04T01:07:26;17.52;;;9.95;;
72813;SDS011;60945;48.516;-2.768;2023-04-04T01:09:54;14.95;;;9.95;;
72813;SDS011;60945;48.516;-2.768;2023-04-04T01:12:21;19.13;;;10.23;;
72813;SDS011;60945;48.516;-2.768;2023-04-04T01:14:47;17.52;;;10.15;;
72813;SDS011;60945;48.516;-2.768;2023-04-04T01:17:13;20.30;;;10.38;;
72813;SDS011;60945;48.516;-2.768;2023-04-04T01:19:45;22.95;;;11.50;;
72813;SDS011;60945;48.516;-2.768;2023-04-04T01:22:17;19.38;;;10.18;;
72813;SDS011;60945;48.516;-2.768;2023-04-04T01:24:45;21.40;;;11.40;;
72813;SDS011;60945;48.516;-2.768;2023-04-04T01:27:13;16.65;;;10.63;;
72813;SDS011;60945;48.516;-2.768;2023-04-04T01:29:38;15.57;;;9.52;;
72813;SDS011;60945;48.516;-2.768;2023-04-04T01:32:16;17.98;;;9.73;;
72813;SDS011;60945;48.516;-2.768;2023-04-04T01:34:57;18.45;;;10.57;;
72813;SDS011;60945;48.516;-2.768;2023-04-04T01:39:52;21.73;;;11.10;;
72813;SDS011;60945;48.516;-2.768;2023-04-04T01:42:21;17.67;;;10.32;;
72813;SDS011;60945;48.516;-2.768;2023-04-04T01:44:55;18.23;;;9.75;;
72813;SDS011;60945;48.516;-2.768;2023-04-04T01:47:21;17.10;;;10.75;;
72813;SDS011;60945;48.516;-2.768;2023-04-04T01:49:47;19.40;;;10.38;;
72813;SDS011;60945;48.516;-2.768;2023-04-04T01:52:13;16.33;;;10.18;;
72813;SDS011;60945;48.516;-2.768;2023-04-04T01:54:39;17.80;;;10.48;;
72813;SDS011;60945;48.516;-2.768;2023-04-04T01:57:04;18.65;;;11.02;;
72813;SDS011;60945;48.516;-2.768;2023-04-04T01:59:30;19.00;;;11.18;;
72813;SDS011;60945;48.516;-2.768;2023-04-04T02:01:56;17.67;;;10.05;;
72813;SDS011;60945;48.516;-2.768;2023-04-04T02:04:25;18.75;;;10.20;;
72813;SDS011;60945;48.516;-2.768;2023-04-04T02:06:50;17.27;;;10.27;;
72813;SDS011;60945;48.516;-2.768;2023-04-04T02:09:16;16.33;;;9.25;;
72813;SDS011;60945;48.516;-2.768;2023-04-04T02:11:42;16.80;;;10.02;;
72813;SDS011;60945;48.516;-2.768;2023-04-04T02:14:08;15.32;;;9.68;;
72813;SDS011;60945;48.516;-2.768;2023-04-04T02:16:33;16.67;;;10.07;;
72813;SDS011;60945;48.516;-2.768;2023-04-04T02:18:59;17.55;;;10.15;;
72813;SDS011;60945;48.516;-2.768;2023-04-04T02:21:25;15.02;;;9.20;;
72813;SDS011;60945;48.516;-2.768;2023-04-04T02:23:51;19.48;;;10.07;;
72813;SDS011;60945;48.516;-2.768;2023-04-04T02:26:17;17.40;;;9.52;;
72813;SDS011;60945;48.516;-2.768;2023-04-04T02:28:43;16.73;;;9.68;;
72813;SDS011;60945;48.516;-2.768;2023-04-04T02:31:09;18.17;;;10.52;;
72813;SDS011;60945;48.516;-2.768;2023-04-04T02:33:35;20.73;;;10.75;;
72813;SDS011;60945;48.516;-2.768;2023-04-04T02:36:00;19.65;;;9.68;;
72813;SDS011;60945;48.516;-2.768;2023-04-04T02:38:26;16.70;;;10.35;;
72813;SDS011;60945;48.516;-2.768;2023-04-04T02:40:52;17.48;;;10.48;;
72813;SDS011;60945;48.516;-2.768;2023-04-04T02:43:18;16.33;;;9.57;;
72813;SDS011;60945;48.516;-2.768;2023-04-04T02:45:46;14.57;;;9.02;;
72813;SDS011;60945;48.516;-2.768;2023-04-04T02:48:12;18.15;;;9.73;;
72813;SDS011;60945;48.516;-2.768;2023-04-04T02:50:37;15.18;;;9.43;;
72813;SDS011;60945;48.516;-2.768;2023-04-04T02:53:03;14.70;;;9.45;;
72813;SDS011;60945;48.516;-2.768;2023-04-04T02:55:28;16.00;;;8.73;;
72813;SDS011;60945;48.516;-2.768;2023-04-04T02:57:57;16.30;;;9.02;;
72813;SDS011;60945;48.516;-2.768;2023-04-04T03:00:23;17.67;;;10.45;;
72813;SDS011;60945;48.516;-2.768;2023-04-04T03:02:55;17.25;;;9.48;;
72813;SDS011;60945;48.516;-2.768;2023-04-04T03:05:22;18.20;;;10.00;;
72813;SDS011;60945;48.516;-2.768;2023-04-04T03:07:55;15.27;;;9.52;;
72813;SDS011;60945;48.516;-2.768;2023-04-04T03:10:22;19.25;;;10.13;;
72813;SDS011;60945;48.516;-2.768;2023-04-04T03:12:49;15.27;;;9.23;;
72813;SDS011;60945;48.516;-2.768;2023-04-04T03:15:15;15.38;;;9.30;;
72813;SDS011;60945;48.516;-2.768;2023-04-04T03:17:40;16.42;;;9.73;;
72813;SDS011;60945;48.516;-2.768;2023-04-04T03:20:07;17.15;;;9.75;;
72813;SDS011;60945;48.516;-2.768;2023-04-04T03:22:33;15.27;;;9.70;;
72813;SDS011;60945;48.516;-2.768;2023-04-04T03:24:58;16.25;;;10.45;;
72813;SDS011;60945;48.516;-2.768;2023-04-04T03:27:24;20.30;;;10.65;;
72813;SDS011;60945;48.516;-2.768;2023-04-04T03:29:53;18.67;;;10.07;;
72813;SDS011;60945;48.516;-2.768;2023-04-04T03:32:19;17.50;;;10.30;;
72813;SDS011;60945;48.516;-2.768;2023-04-04T03:34:44;15.10;;;9.05;;
72813;SDS011;60945;48.516;-2.768;2023-04-04T03:37:10;15.60;;;9.95;;
72813;SDS011;60945;48.516;-2.768;2023-04-04T03:39:36;16.50;;;9.55;;
72813;SDS011;60945;48.516;-2.768;2023-04-04T03:42:02;19.42;;;10.18;;
72813;SDS011;60945;48.516;-2.768;2023-04-04T03:44:28;17.88;;;10.43;;
72813;SDS011;60945;48.516;-2.768;2023-04-04T03:46:53;17.63;;;10.55;;
72813;SDS011;60945;48.516;-2.768;2023-04-04T03:49:19;18.17;;;10.50;;
72813;SDS011;60945;48.516;-2.768;2023-04-04T03:51:45;16.75;;;9.43;;
72813;SDS011;60945;48.516;-2.768;2023-04-04T03:54:10;17.48;;;10.02;;
72813;SDS011;60945;48.516;-2.768;2023-04-04T03:56:36;19.67;;;10.50;;
72813;SDS011;60945;48.516;-2.768;2023-04-04T03:59:01;17.45;;;10.52;;
72813;SDS011;60945;48.516;-2.768;2023-04-04T04:01:28;18.88;;;9.95;;
72813;SDS011;60945;48.516;-2.768;2023-04-04T04:03:53;15.10;;;9.27;;
72813;SDS011;60945;48.516;-2.768;2023-04-04T04:06:19;15.88;;;9.40;;
72813;SDS011;60945;48.516;-2.768;2023-04-04T04:08:45;16.38;;;10.48;;
72813;SDS011;60945;48.516;-2.768;2023-04-04T04:11:11;15.30;;;9.23;;
72813;SDS011;60945;48.516;-2.768;2023-04-04T04:13:36;19.15;;;9.98;;
72813;SDS011;60945;48.516;-2.768;2023-04-04T04:16:03;21.50;;;10.25;;
72813;SDS011;60945;48.516;-2.768;2023-04-04T04:18:29;19.65;;;10.65;;
72813;SDS011;60945;48.516;-2.768;2023-04-04T04:20:55;16.33;;;9.85;;
72813;SDS011;60945;48.516;-2.768;2023-04-04T04:23:23;20.50;;;10.18;;
72813;SDS011;60945;48.516;-2.768;2023-04-04T04:25:48;15.07;;;9.30;;
72813;SDS011;60945;48.516;-2.768;2023-04-04T04:28:14;15.75;;;10.30;;
72813;SDS011;60945;48.516;-2.768;2023-04-04T04:30:40;15.88;;;10.02;;
72813;SDS011;60945;48.516;-2.768;2023-04-04T04:33:05;18.58;;;9.73;;
72813;SDS011;60945;48.516;-2.768;2023-04-04T04:35:34;18.23;;;10.18;;
72813;SDS011;60945;48.516;-2.768;2023-04-04T04:38:01;17.88;;;10.43;;
72813;SDS011;60945;48.516;-2.768;2023-04-04T04:40:27;17.65;;;10.20;;
72813;SDS011;60945;48.516;-2.768;2023-04-04T04:42:53;17.92;;;10.25;;
72813;SDS011;60945;48.516;-2.768;2023-04-04T04:45:20;18.00;;;10.73;;
72813;SDS011;60945;48.516;-2.768;2023-04-04T04:47:46;18.92;;;10.60;;
72813;SDS011;60945;48.516;-2.768;2023-04-04T04:50:12;18.73;;;10.40;;
72813;SDS011;60945;48.516;-2.768;2023-04-04T04:52:37;19.15;;;10.02;;
72813;SDS011;60945;48.516;-2.768;2023-04-04T04:55:03;19.67;;;10.45;;
72813;SDS011;60945;48.516;-2.768;2023-04-04T04:57:30;17.45;;;9.93;;
72813;SDS011;60945;48.516;-2.768;2023-04-04T04:59:58;19.00;;;11.20;;
72813;SDS011;60945;48.516;-2.768;2023-04-04T05:02:25;16.95;;;9.18;;
72813;SDS011;60945;48.516;-2.768;2023-04-04T05:04:51;17.05;;;10.43;;
72813;SDS011;60945;48.516;-2.768;2023-04-04T05:07:17;16.85;;;10.20;;
72813;SDS011;60945;48.516;-2.768;2023-04-04T05:15:58;19.17;;;11.38;;
72813;SDS011;60945;48.516;-2.768;2023-04-04T05:18:24;17.23;;;10.68;;
72813;SDS011;60945;48.516;-2.768;2023-04-04T05:20:54;18.08;;;11.73;;
72813;SDS011;60945;48.516;-2.768;2023-04-04T05:23:21;20.25;;;12.07;;
72813;SDS011;60945;48.516;-2.768;2023-04-04T05:25:47;19.70;;;11.43;;
72813;SDS011;60945;48.516;-2.768;2023-04-04T05:28:17;19.42;;;11.32;;
72813;SDS011;60945;48.516;-2.768;2023-04-04T05:30:44;18.50;;;10.95;;
72813;SDS011;60945;48.516;-2.768;2023-04-04T05:33:10;17.65;;;10.07;;
72813;SDS011;60945;48.516;-2.768;2023-04-04T05:35:36;18.55;;;10.75;;
72813;SDS011;60945;48.516;-2.768;2023-04-04T05:38:02;20.65;;;11.77;;
72813;SDS011;60945;48.516;-2.768;2023-04-04T05:40:27;18.55;;;11.73;;
72813;SDS011;60945;48.516;-2.768;2023-04-04T05:42:56;16.83;;;9.77;;
72813;SDS011;60945;48.516;-2.768;2023-04-04T05:45:23;18.30;;;11.23;;
72813;SDS011;60945;48.516;-2.768;2023-04-04T05:47:49;17.08;;;10.27;;
72813;SDS011;60945;48.516;-2.768;2023-04-04T05:50:18;18.83;;;10.85;;
72813;SDS011;60945;48.516;-2.768;2023-04-04T05:52:45;20.13;;;11.25;;
72813;SDS011;60945;48.516;-2.768;2023-04-04T05:55:11;21.40;;;11.05;;
72813;SDS011;60945;48.516;-2.768;2023-04-04T05:57:36;21.33;;;11.65;;
72813;SDS011;60945;48.516;-2.768;2023-04-04T06:00:05;18.00;;;11.48;;
72813;SDS011;60945;48.516;-2.768;2023-04-04T06:02:33;20.58;;;10.27;;
72813;SDS011;60945;48.516;-2.768;2023-04-04T06:04:59;21.45;;;11.63;;
72813;SDS011;60945;48.516;-2.768;2023-04-04T06:07:24;20.98;;;11.48;;
72813;SDS011;60945;48.516;-2.768;2023-04-04T06:09:50;20.65;;;11.13;;
72813;SDS011;60945;48.516;-2.768;2023-04-04T06:12:16;20.58;;;12.25;;
72813;SDS011;60945;48.516;-2.768;2023-04-04T06:14:41;19.23;;;11.80;;
72813;SDS011;60945;48.516;-2.768;2023-04-04T06:17:07;20.42;;;11.63;;
72813;SDS011;60945;48.516;-2.768;2023-04-04T06:19:33;19.30;;;11.63;;
72813;SDS011;60945;48.516;-2.768;2023-04-04T06:21:58;20.25;;;11.15;;
72813;SDS011;60945;48.516;-2.768;2023-04-04T06:24:24;22.45;;;12.27;;
72813;SDS011;60945;48.516;-2.768;2023-04-04T06:26:50;18.73;;;12.10;;
72813;SDS011;60945;48.516;-2.768;2023-04-04T06:29:16;22.40;;;11.52;;
72813;SDS011;60945;48.516;-2.768;2023-04-04T06:31:42;20.55;;;11.25;;
72813;SDS011;60945;48.516;-2.768;2023-04-04T06:34:08;20.80;;;12.05;;
72813;SDS011;60945;48.516;-2.768;2023-04-04T06:36:34;21.58;;;12.55;;
72813;SDS011;60945;48.516;-2.768;2023-04-04T06:39:00;22.83;;;11.80;;
72813;SDS011;60945;48.516;-2.768;2023-04-04T06:41:25;19.25;;;11.27;;
72813;SDS011;60945;48.516;-2.768;2023-04-04T06:43:54;21.77;;;12.43;;
72813;SDS011;60945;48.516;-2.768;2023-04-04T06:46:19;19.17;;;12.10;;
72813;SDS011;60945;48.516;-2.768;2023-04-04T06:48:45;20.40;;;11.85;;
72813;SDS011;60945;48.516;-2.768;2023-04-04T06:51:11;18.42;;;11.38;;
72813;SDS011;60945;48.516;-2.768;2023-04-04T06:53:36;19.63;;;11.30;;
72813;SDS011;60945;48.516;-2.768;2023-04-04T06:56:03;17.80;;;11.10;;
72813;SDS011;60945;48.516;-2.768;2023-04-04T06:58:29;21.10;;;11.52;;
72813;SDS011;60945;48.516;-2.768;2023-04-04T07:00:55;21.05;;;13.05;;
72813;SDS011;60945;48.516;-2.768;2023-04-04T07:03:24;26.67;;;13.30;;
72813;SDS011;60945;48.516;-2.768;2023-04-04T07:05:51;18.40;;;11.75;;
72813;SDS011;60945;48.516;-2.768;2023-04-04T07:08:16;23.10;;;12.57;;
72813;SDS011;60945;48.516;-2.768;2023-04-04T07:10:42;18.88;;;12.23;;
72813;SDS011;60945;48.516;-2.768;2023-04-04T07:13:08;17.17;;;11.52;;
72813;SDS011;60945;48.516;-2.768;2023-04-04T07:15:34;18.45;;;11.68;;
72813;SDS011;60945;48.516;-2.768;2023-04-04T07:18:00;18.45;;;11.70;;
72813;SDS011;60945;48.516;-2.768;2023-04-04T07:20:26;18.88;;;11.57;;
72813;SDS011;60945;48.516;-2.768;2023-04-04T07:22:53;20.35;;;11.32;;
72813;SDS011;60945;48.516;-2.768;2023-04-04T07:25:20;22.48;;;14.32;;
72813;SDS011;60945;48.516;-2.768;2023-04-04T07:27:46;21.77;;;13.57;;
72813;SDS011;60945;48.516;-2.768;2023-04-04T07:30:12;20.35;;;13.68;;
72813;SDS011;60945;48.516;-2.768;2023-04-04T07:32:38;20.70;;;13.52;;
72813;SDS011;60945;48.516;-2.768;2023-04-04T07:35:07;19.05;;;12.90;;
72813;SDS011;60945;48.516;-2.768;2023-04-04T07:37:36;25.63;;;13.27;;
72813;SDS011;60945;48.516;-2.768;2023-04-04T07:40:03;17.67;;;11.75;;
72813;SDS011;60945;48.516;-2.768;2023-04-04T07:42:31;16.50;;;10.40;;
72813;SDS011;60945;48.516;-2.768;2023-04-04T07:44:57;18.48;;;11.10;;
72813;SDS011;60945;48.516;-2.768;2023-04-04T07:47:23;13.98;;;10.18;;
72813;SDS011;60945;48.516;-2.768;2023-04-04T07:49:48;13.25;;;9.65;;
72813;SDS011;60945;48.516;-2.768;2023-04-04T07:52:14;14.90;;;9.60;;
72813;SDS011;60945;48.516;-2.768;2023-04-04T07:54:40;13.38;;;9.13;;
72813;SDS011;60945;48.516;-2.768;2023-04-04T07:57:06;12.23;;;9.25;;
72813;SDS011;60945;48.516;-2.768;2023-04-04T07:59:33;11.82;;;8.40;;
72813;SDS011;60945;48.516;-2.768;2023-04-04T08:02:02;14.85;;;9.80;;
72813;SDS011;60945;48.516;-2.768;2023-04-04T08:04:28;12.85;;;9.60;;
72813;SDS011;60945;48.516;-2.768;2023-04-04T08:06:53;16.83;;;12.48;;
72813;SDS011;60945;48.516;-2.768;2023-04-04T08:09:19;12.95;;;9.68;;
72813;SDS011;60945;48.516;-2.768;2023-04-04T08:11:45;15.27;;;9.70;;
72813;SDS011;60945;48.516;-2.768;2023-04-04T08:14:10;14.02;;;10.40;;
72813;SDS011;60945;48.516;-2.768;2023-04-04T08:16:37;14.15;;;9.60;;
72813;SDS011;60945;48.516;-2.768;2023-04-04T08:19:03;17.98;;;10.85;;
72813;SDS011;60945;48.516;-2.768;2023-04-04T08:21:29;15.13;;;10.13;;
72813;SDS011;60945;48.516;-2.768;2023-04-04T08:23:55;13.40;;;10.18;;
72813;SDS011;60945;48.516;-2.768;2023-04-04T08:26:20;13.80;;;10.23;;
72813;SDS011;60945;48.516;-2.768;2023-04-04T08:28:47;13.27;;;9.77;;
72813;SDS011;60945;48.516;-2.768;2023-04-04T08:31:14;15.18;;;10.43;;
72813;SDS011;60945;48.516;-2.768;2023-04-04T08:33:39;13.25;;;9.50;;
72813;SDS011;60945;48.516;-2.768;2023-04-04T08:36:05;10.93;;;9.10;;
72813;SDS011;60945;48.516;-2.768;2023-04-04T08:38:31;11.20;;;9.10;;
72813;SDS011;60945;48.516;-2.768;2023-04-04T08:40:57;12.18;;;9.13;;
72813;SDS011;60945;48.516;-2.768;2023-04-04T08:43:23;10.65;;;8.82;;
72813;SDS011;60945;48.516;-2.768;2023-04-04T08:45:50;13.05;;;9.45;;
72813;SDS011;60945;48.516;-2.768;2023-04-04T08:48:18;12.82;;;10.25;;
72813;SDS011;60945;48.516;-2.768;2023-04-04T08:50:45;14.70;;;9.18;;
72813;SDS011;60945;48.516;-2.768;2023-04-04T08:53:12;12.13;;;7.75;;
72813;SDS011;60945;48.516;-2.768;2023-04-04T08:55:40;9.77;;;8.70;;
72813;SDS011;60945;48.516;-2.768;2023-04-04T08:58:06;10.95;;;8.70;;
72813;SDS011;60945;48.516;-2.768;2023-04-04T09:00:33;10.73;;;8.45;;
72813;SDS011;60945;48.516;-2.768;2023-04-04T09:02:59;11.82;;;8.50;;
72813;SDS011;60945;48.516;-2.768;2023-04-04T09:05:32;10.23;;;8.80;;
72813;SDS011;60945;48.516;-2.768;2023-04-04T09:07:58;11.27;;;8.60;;
72813;SDS011;60945;48.516;-2.768;2023-04-04T09:10:24;10.93;;;8.80;;
72813;SDS011;60945;48.516;-2.768;2023-04-04T09:12:51;11.10;;;8.20;;
72813;SDS011;60945;48.516;-2.768;2023-04-04T09:15:20;21.30;;;10.48;;
72813;SDS011;60945;48.516;-2.768;2023-04-04T09:17:46;27.92;;;12.02;;
72813;SDS011;60945;48.516;-2.768;2023-04-04T09:23:10;12.48;;;8.82;;
72813;SDS011;60945;48.516;-2.768;2023-04-04T09:25:47;9.20;;;8.23;;
72813;SDS011;60945;48.516;-2.768;2023-04-04T09:28:17;9.70;;;8.65;;
72813;SDS011;60945;48.516;-2.768;2023-04-04T09:30:43;10.13;;;9.13;;
72813;SDS011;60945;48.516;-2.768;2023-04-04T09:33:12;9.27;;;8.35;;
72813;SDS011;60945;48.516;-2.768;2023-04-04T09:35:42;10.35;;;9.10;;
72813;SDS011;60945;48.516;-2.768;2023-04-04T09:38:09;10.13;;;9.23;;
72813;SDS011;60945;48.516;-2.768;2023-04-04T09:40:36;9.82;;;8.82;;
72813;SDS011;60945;48.516;-2.768;2023-04-04T09:43:02;9.85;;;8.90;;
72813;SDS011;60945;48.516;-2.768;2023-04-04T09:45:36;9.95;;;8.95;;
72813;SDS011;60945;48.516;-2.768;2023-04-04T09:48:04;9.20;;;8.30;;
72813;SDS011;60945;48.516;-2.768;2023-04-04T09:50:31;10.05;;;8.57;;
72813;SDS011;60945;48.516;-2.768;2023-04-04T09:53:00;8.73;;;7.82;;
72813;SDS011;60945;48.516;-2.768;2023-04-04T09:55:32;9.15;;;7.40;;
72813;SDS011;60945;48.516;-2.768;2023-04-04T09:57:59;11.07;;;8.68;;
72813;SDS011;60945;48.516;-2.768;2023-04-04T10:00:41;8.90;;;8.15;;
72813;SDS011;60945;48.516;-2.768;2023-04-04T10:03:12;9.52;;;8.63;;
72813;SDS011;60945;48.516;-2.768;2023-04-04T10:05:39;9.27;;;8.48;;
72813;SDS011;60945;48.516;-2.768;2023-04-04T10:08:21;9.25;;;7.82;;
72813;SDS011;60945;48.516;-2.768;2023-04-04T10:10:49;9.65;;;8.75;;
72813;SDS011;60945;48.516;-2.768;2023-04-04T10:13:25;8.93;;;8.07;;
72813;SDS011;60945;48.516;-2.768;2023-04-04T10:15:52;8.32;;;7.53;;
72813;SDS011;60945;48.516;-2.768;2023-04-04T10:18:23;9.10;;;8.30;;
72813;SDS011;60945;48.516;-2.768;2023-04-04T10:20:50;8.70;;;7.90;;
72813;SDS011;60945;48.516;-2.768;2023-04-04T10:23:21;9.63;;;8.73;;
72813;SDS011;60945;48.516;-2.768;2023-04-04T10:25:50;9.13;;;8.35;;
72813;SDS011;60945;48.516;-2.768;2023-04-04T10:28:17;8.77;;;8.00;;
72813;SDS011;60945;48.516;-2.768;2023-04-04T10:30:51;9.33;;;8.40;;
72813;SDS011;60945;48.516;-2.768;2023-04-04T10:33:23;9.73;;;8.75;;
72813;SDS011;60945;48.516;-2.768;2023-04-04T10:36:01;9.73;;;8.80;;
72813;SDS011;60945;48.516;-2.768;2023-04-04T10:38:30;9.20;;;8.40;;
72813;SDS011;60945;48.516;-2.768;2023-04-04T10:41:01;9.80;;;8.93;;
72813;SDS011;60945;48.516;-2.768;2023-04-04T10:43:31;10.27;;;9.30;;
72813;SDS011;60945;48.516;-2.768;2023-04-04T10:46:00;9.40;;;8.50;;
72813;SDS011;60945;48.516;-2.768;2023-04-04T10:48:34;8.77;;;8.07;;
72813;SDS011;60945;48.516;-2.768;2023-04-04T10:51:01;9.10;;;8.40;;
72813;SDS011;60945;48.516;-2.768;2023-04-04T10:53:28;8.95;;;8.20;;
72813;SDS011;60945;48.516;-2.768;2023-04-04T10:55:54;9.05;;;8.25;;
72813;SDS011;60945;48.516;-2.768;2023-04-04T10:58:20;10.23;;;9.32;;
72813;SDS011;60945;48.516;-2.768;2023-04-04T11:00:50;9.32;;;8.52;;
72813;SDS011;60945;48.516;-2.768;2023-04-04T11:03:18;9.52;;;8.73;;
72813;SDS011;60945;48.516;-2.768;2023-04-04T11:05:45;9.15;;;8.45;;
72813;SDS011;60945;48.516;-2.768;2023-04-04T11:08:14;9.10;;;8.40;;
72813;SDS011;60945;48.516;-2.768;2023-04-04T11:10:43;9.60;;;8.80;;
72813;SDS011;60945;48.516;-2.768;2023-04-04T11:15:53;9.77;;;9.02;;
72813;SDS011;60945;48.516;-2.768;2023-04-04T11:18:44;9.70;;;8.90;;
72813;SDS011;60945;48.516;-2.768;2023-04-04T11:21:13;10.98;;;9.98;;
72813;SDS011;60945;48.516;-2.768;2023-04-04T11:26:16;10.65;;;8.82;;
72813;SDS011;60945;48.516;-2.768;2023-04-04T11:28:43;10.57;;;9.32;;
72813;SDS011;60945;48.516;-2.768;2023-04-04T11:34:28;9.65;;;8.82;;
72813;SDS011;60945;48.516;-2.768;2023-04-04T11:39:03;9.25;;;8.52;;
72813;SDS011;60945;48.516;-2.768;2023-04-04T11:44:32;9.30;;;8.50;;
72813;SDS011;60945;48.516;-2.768;2023-04-04T11:49:36;10.18;;;9.20;;
72813;SDS011;60945;48.516;-2.768;2023-04-04T11:52:13;10.90;;;9.90;;
72813;SDS011;60945;48.516;-2.768;2023-04-04T11:54:42;9.88;;;8.98;;
72813;SDS011;60945;48.516;-2.768;2023-04-04T11:57:10;10.43;;;9.32;;
72813;SDS011;60945;48.516;-2.768;2023-04-04T11:59:40;11.02;;;9.95;;
72813;SDS011;60945;48.516;-2.768;2023-04-04T12:02:10;12.13;;;10.82;;
72813;SDS011;60945;48.516;-2.768;2023-04-04T12:04:37;11.73;;;9.70;;
72813;SDS011;60945;48.516;-2.768;2023-04-04T12:07:11;11.15;;;9.85;;
72813;SDS011;60945;48.516;-2.768;2023-04-04T12:09:38;11.48;;;10.27;;
72813;SDS011;60945;48.516;-2.768;2023-04-04T12:12:04;11.48;;;10.07;;
72813;SDS011;60945;48.516;-2.768;2023-04-04T12:14:31;11.07;;;9.20;;
72813;SDS011;60945;48.516;-2.768;2023-04-04T12:16:58;10.23;;;8.88;;
72813;SDS011;60945;48.516;-2.768;2023-04-04T12:19:24;11.93;;;9.75;;
72813;SDS011;60945;48.516;-2.768;2023-04-04T12:21:55;9.77;;;8.77;;
72813;SDS011;60945;48.516;-2.768;2023-04-04T12:24:25;10.18;;;9.27;;
72813;SDS011;60945;48.516;-2.768;2023-04-04T12:26:51;9.77;;;8.88;;
72813;SDS011;60945;48.516;-2.768;2023-04-04T12:29:18;9.77;;;8.93;;
72813;SDS011;60945;48.516;-2.768;2023-04-04T12:31:46;10.63;;;9.45;;
72813;SDS011;60945;48.516;-2.768;2023-04-04T12:34:22;10.15;;;9.27;;
72813;SDS011;60945;48.516;-2.768;2023-04-04T12:36:59;9.88;;;8.95;;
72813;SDS011;60945;48.516;-2.768;2023-04-04T12:39:26;10.65;;;9.70;;
72813;SDS011;60945;48.516;-2.768;2023-04-04T12:41:54;10.57;;;9.77;;
72813;SDS011;60945;48.516;-2.768;2023-04-04T12:44:44;11.00;;;10.00;;
72813;SDS011;60945;48.516;-2.768;2023-04-04T12:47:11;10.80;;;9.90;;
72813;SDS011;60945;48.516;-2.768;2023-04-04T12:52:15;12.02;;;10.75;;
72813;SDS011;60945;48.516;-2.768;2023-04-04T12:54:46;11.55;;;10.35;;
72813;SDS011;60945;48.516;-2.768;2023-04-04T12:57:19;11.48;;;10.48;;
72813;SDS011;60945;48.516;-2.768;2023-04-04T12:59:46;11.43;;;10.43;;
72813;SDS011;60945;48.516;-2.768;2023-04-04T13:02:17;10.68;;;9.88;;
72813;SDS011;60945;48.516;-2.768;2023-04-04T13:04:45;10.55;;;9.85;;
72813;SDS011;60945;48.516;-2.768;2023-04-04T13:07:19;10.77;;;9.98;;
72813;SDS011;60945;48.516;-2.768;2023-04-04T13:09:52;12.73;;;11.45;;
72813;SDS011;60945;48.516;-2.768;2023-04-04T13:12:21;11.45;;;10.45;;
72813;SDS011;60945;48.516;-2.768;2023-04-04T13:17:20;10.55;;;9.65;;
72813;SDS011;60945;48.516;-2.768;2023-04-04T13:19:46;10.23;;;9.40;;
72813;SDS011;60945;48.516;-2.768;2023-04-04T13:22:12;10.88;;;10.18;;
72813;SDS011;60945;48.516;-2.768;2023-04-04T13:24:37;10.25;;;9.55;;
72813;SDS011;60945;48.516;-2.768;2023-04-04T13:27:03;10.43;;;9.73;;
72813;SDS011;60945;48.516;-2.768;2023-04-04T13:29:28;10.38;;;9.57;;
72813;SDS011;60945;48.516;-2.768;2023-04-04T13:31:54;10.30;;;9.40;;
72813;SDS011;60945;48.516;-2.768;2023-04-04T13:34:20;10.82;;;9.80;;
72813;SDS011;60945;48.516;-2.768;2023-04-04T13:36:48;9.85;;;9.15;;
72813;SDS011;60945;48.516;-2.768;2023-04-04T13:39:14;9.10;;;8.50;;
72813;SDS011;60945;48.516;-2.768;2023-04-04T13:41:42;9.65;;;8.95;;
72813;SDS011;60945;48.516;-2.768;2023-04-04T13:44:08;9.10;;;8.50;;
72813;SDS011;60945;48.516;-2.768;2023-04-04T13:46:34;10.00;;;9.30;;
72813;SDS011;60945;48.516;-2.768;2023-04-04T13:49:00;9.65;;;8.88;;
72813;SDS011;60945;48.516;-2.768;2023-04-04T13:51:26;10.40;;;9.60;;
72813;SDS011;60945;48.516;-2.768;2023-04-04T13:53:52;8.63;;;8.02;;
72813;SDS011;60945;48.516;-2.768;2023-04-04T13:56:17;9.07;;;8.27;;
72813;SDS011;60945;48.516;-2.768;2023-04-04T13:58:43;8.77;;;8.13;;
72813;SDS011;60945;48.516;-2.768;2023-04-04T14:01:09;8.90;;;8.20;;
72813;SDS011;60945;48.516;-2.768;2023-04-04T14:03:34;8.52;;;7.93;;
72813;SDS011;60945;48.516;-2.768;2023-04-04T14:06:01;8.48;;;7.85;;
72813;SDS011;60945;48.516;-2.768;2023-04-04T14:08:27;8.65;;;7.85;;
72813;SDS011;60945;48.516;-2.768;2023-04-04T14:10:52;8.40;;;7.70;;
72813;SDS011;60945;48.516;-2.768;2023-04-04T14:13:18;8.07;;;7.47;;
72813;SDS011;60945;48.516;-2.768;2023-04-04T14:15:44;7.63;;;7.03;;
72813;SDS011;60945;48.516;-2.768;2023-04-04T14:18:12;8.30;;;7.68;;
72813;SDS011;60945;48.516;-2.768;2023-04-04T14:20:37;7.45;;;6.70;;
72813;SDS011;60945;48.516;-2.768;2023-04-04T14:23:03;7.80;;;7.10;;
72813;SDS011;60945;48.516;-2.768;2023-04-04T14:25:29;8.00;;;7.40;;
72813;SDS011;60945;48.516;-2.768;2023-04-04T14:27:55;7.60;;;7.00;;
72813;SDS011;60945;48.516;-2.768;2023-04-04T14:30:20;7.88;;;7.22;;
72813;SDS011;60945;48.516;-2.768;2023-04-04T14:32:46;7.63;;;7.03;;
72813;SDS011;60945;48.516;-2.768;2023-04-04T14:35:19;7.15;;;6.53;;
72813;SDS011;60945;48.516;-2.768;2023-04-04T14:37:45;7.10;;;6.60;;
72813;SDS011;60945;48.516;-2.768;2023-04-04T14:40:11;7.13;;;6.63;;
72813;SDS011;60945;48.516;-2.768;2023-04-04T14:42:37;7.53;;;6.93;;
72813;SDS011;60945;48.516;-2.768;2023-04-04T14:45:05;7.20;;;6.68;;
72813;SDS011;60945;48.516;-2.768;2023-04-04T14:47:34;6.53;;;6.03;;
72813;SDS011;60945;48.516;-2.768;2023-04-04T14:50:01;7.00;;;6.40;;
72813;SDS011;60945;48.516;-2.768;2023-04-04T14:52:26;6.78;;;6.18;;
72813;SDS011;60945;48.516;-2.768;2023-04-04T14:54:55;7.20;;;6.60;;